Los Angeles, California
Traffic Map
Current Weather Conditions
Los Angeles, California
Clear
Clear
67°
Feels Like: 67°
Wind Chill: 67° Ceiling: Unl
Heat Index: 67° Visibility: 10mi
Dew Point: 62° Wind: 0mph
Humidity: 84% Direction: ° ()
Pressure: 29.97in Gusts: 0mph
Raw Report DataKCQT 220847Z AUTO 00000KT 10SM CLR 19/17 A2997 RMK AO2 SLP147 T01940167 58003
Traffic Incident Summary
Active as of:
Severity:
Category:
InformationThere was an issue retrieving the traffic information for this location. Please try a different location or try again shortly.
Advertisements